Time;durP1;ratioP1;P1;durP2;ratioP2;P2;SDS_P1;SDS_P2;PMS_P1;PMS_P2;Temp;Humidity;BMP_temperature;BMP_pressure;BME280_temperature;BME280_humidity;BME280_pressure;Samples;Min_cycle;Max_cycle;Signal;HPM_P1;HPM_P2
2021/08/17 00:00:10;;;;;;;25.25;5.28;;;13.30;99.90;;;;;;5063750;28;20490;-74
2021/08/17 00:02:36;;;;;;;25.90;5.82;;;13.20;99.90;;;;;;5064394;28;20056;-74
2021/08/17 00:05:03;;;;;;;20.65;5.40;;;13.20;99.90;;;;;;5069029;28;20032;-74
2021/08/17 00:07:30;;;;;;;17.88;5.13;;;13.20;99.90;;;;;;5072040;28;20048;-74
2021/08/17 00:09:56;;;;;;;26.20;5.57;;;13.20;99.90;;;;;;5084984;28;20044;-74
2021/08/17 00:12:22;;;;;;;21.80;5.10;;;13.10;99.90;;;;;;5084363;28;20047;-73
2021/08/17 00:14:48;;;;;;;17.48;4.60;;;13.20;99.90;;;;;;5058727;28;20120;-74
2021/08/17 00:17:15;;;;;;;19.35;5.22;;;13.10;99.90;;;;;;5052506;28;20054;-74
2021/08/17 00:19:43;;;;;;;18.20;5.30;;;13.10;99.90;;;;;;5081664;28;20044;-75
2021/08/17 00:22:09;;;;;;;17.25;5.50;;;13.10;99.90;;;;;;5045495;28;20380;-74
2021/08/17 00:24:36;;;;;;;20.75;5.57;;;13.00;99.90;;;;;;5072431;28;20093;-74
2021/08/17 00:27:02;;;;;;;17.65;4.78;;;13.00;99.90;;;;;;5072778;28;20036;-74
2021/08/17 00:29:29;;;;;;;19.10;4.60;;;13.00;99.90;;;;;;5068550;28;20043;-74
2021/08/17 00:31:55;;;;;;;15.05;4.20;;;12.90;99.90;;;;;;5076115;28;20118;-74
2021/08/17 00:34:21;;;;;;;17.80;4.88;;;12.90;99.90;;;;;;5075744;28;20091;-74
2021/08/17 00:36:51;;;;;;;16.67;4.93;;;12.90;99.90;;;;;;5051312;28;20119;-74
2021/08/17 00:39:17;;;;;;;20.05;4.82;;;12.80;99.90;;;;;;5075995;28;20135;-74
2021/08/17 00:41:45;;;;;;;16.98;4.32;;;12.80;99.90;;;;;;5073654;28;20117;-74
2021/08/17 00:44:23;;;;;;;20.10;4.85;;;12.80;99.90;;;;;;5077685;28;20404;-74
2021/08/17 00:46:49;;;;;;;13.55;4.20;;;12.70;99.90;;;;;;5071479;28;20063;-74
2021/08/17 00:49:16;;;;;;;19.60;4.70;;;12.70;99.90;;;;;;5076132;28;20494;-74
2021/08/17 00:51:42;;;;;;;19.38;4.47;;;12.70;99.90;;;;;;5054641;28;20040;-75
2021/08/17 00:54:11;;;;;;;15.57;4.70;;;12.70;99.90;;;;;;5069624;28;20040;-74
2021/08/17 00:56:42;;;;;;;17.38;4.57;;;12.60;99.90;;;;;;5074498;28;20071;-74
2021/08/17 00:59:10;;;;;;;22.42;4.60;;;12.70;99.90;;;;;;5063346;28;20040;-75
2021/08/17 01:01:36;;;;;;;12.55;3.50;;;12.60;99.90;;;;;;5068135;28;20047;-74
2021/08/17 01:04:03;;;;;;;15.45;4.32;;;12.60;99.90;;;;;;5063896;28;20060;-75
2021/08/17 01:06:30;;;;;;;15.90;4.22;;;12.60;99.90;;;;;;5054735;28;20090;-74
2021/08/17 01:08:57;;;;;;;15.82;4.63;;;12.60;99.90;;;;;;5067424;28;20576;-73
2021/08/17 01:11:22;;;;;;;14.55;3.92;;;12.50;99.90;;;;;;5070886;28;20052;-74
2021/08/17 01:13:51;;;;;;;17.55;4.65;;;12.50;99.90;;;;;;5067069;28;20045;-73
2021/08/17 01:16:19;;;;;;;15.00;4.15;;;12.50;99.90;;;;;;5072422;28;20043;-74
2021/08/17 01:18:45;;;;;;;15.27;3.70;;;12.40;99.90;;;;;;5076457;28;20040;-73
2021/08/17 01:21:11;;;;;;;13.25;4.20;;;12.40;99.90;;;;;;5072376;28;20508;-73
2021/08/17 01:23:39;;;;;;;15.63;4.30;;;12.40;99.90;;;;;;5057932;28;20056;-74
2021/08/17 01:26:05;;;;;;;17.77;4.75;;;12.40;99.90;;;;;;5056260;28;20072;-74
2021/08/17 01:28:31;;;;;;;19.83;4.53;;;12.40;99.90;;;;;;5075010;28;20491;-73
2021/08/17 01:31:07;;;;;;;13.40;3.72;;;12.40;99.90;;;;;;5080050;28;20041;-74
2021/08/17 01:33:33;;;;;;;14.45;3.80;;;12.30;99.90;;;;;;5081307;28;20043;-74
2021/08/17 01:36:01;;;;;;;15.60;4.35;;;12.30;99.90;;;;;;5056509;28;20036;-72
2021/08/17 01:38:27;;;;;;;15.52;3.75;;;12.30;99.90;;;;;;5041539;28;20508;-73
2021/08/17 01:40:53;;;;;;;15.98;4.55;;;12.40;99.90;;;;;;5030005;28;20045;-73
2021/08/17 01:43:21;;;;;;;10.32;4.20;;;12.40;99.90;;;;;;5027543;28;20045;-76
2021/08/17 01:45:58;;;;;;;15.82;4.60;;;12.40;99.90;;;;;;5058627;28;20052;-74
2021/08/17 01:48:26;;;;;;;17.05;4.13;;;12.40;99.90;;;;;;5056798;28;20723;-74
2021/08/17 01:50:52;;;;;;;13.43;4.10;;;12.50;99.90;;;;;;5061803;28;20119;-74
2021/08/17 01:53:18;;;;;;;12.77;4.60;;;12.50;99.90;;;;;;5057394;28;20045;-74
2021/08/17 01:55:44;;;;;;;19.10;4.50;;;12.50;99.90;;;;;;5045875;28;20052;-73
2021/08/17 01:58:10;;;;;;;16.17;4.30;;;12.60;99.90;;;;;;5035744;28;20116;-73
2021/08/17 02:00:37;;;;;;;21.73;4.57;;;12.60;99.90;;;;;;5030892;28;20037;-73
2021/08/17 02:03:03;;;;;;;15.98;4.45;;;12.60;99.90;;;;;;5031454;28;20499;-74
2021/08/17 02:05:29;;;;;;;12.02;4.70;;;12.60;99.90;;;;;;5022957;28;20069;-74
2021/08/17 02:07:56;;;;;;;19.83;4.90;;;12.70;99.90;;;;;;5029388;28;20072;-73
2021/08/17 02:10:22;;;;;;;20.75;5.20;;;12.70;99.90;;;;;;5046945;28;20063;-74
2021/08/17 02:12:49;;;;;;;14.45;4.13;;;12.70;99.90;;;;;;5082772;28;20036;-73
2021/08/17 02:15:14;;;;;;;15.90;4.85;;;12.80;99.90;;;;;;5070881;28;20395;-74
2021/08/17 02:17:40;;;;;;;12.65;3.90;;;12.80;99.90;;;;;;5072250;28;20047;-73
2021/08/17 02:20:07;;;;;;;13.60;4.18;;;12.80;99.90;;;;;;5077886;28;20453;-74
2021/08/17 02:22:33;;;;;;;16.00;3.80;;;12.80;99.90;;;;;;5086110;28;20043;-73
2021/08/17 02:24:58;;;;;;;14.98;4.50;;;12.90;99.90;;;;;;5083881;28;20044;-73
2021/08/17 02:27:24;;;;;;;13.05;4.68;;;12.90;99.90;;;;;;5086257;28;20953;-75
2021/08/17 02:29:50;;;;;;;15.88;3.80;;;12.90;99.90;;;;;;5064729;28;20145;-73
2021/08/17 02:32:16;;;;;;;15.63;3.92;;;12.90;99.90;;;;;;5077434;28;20748;-73
2021/08/17 02:34:42;;;;;;;16.35;4.25;;;12.90;99.90;;;;;;5057142;28;20552;-74
2021/08/17 02:37:11;;;;;;;13.23;3.53;;;12.90;99.90;;;;;;5080730;28;20040;-73
2021/08/17 02:39:36;;;;;;;12.38;3.00;;;12.90;99.90;;;;;;5076617;28;20056;-73
2021/08/17 02:42:03;;;;;;;12.43;3.08;;;12.80;99.90;;;;;;5068960;28;20070;-73
2021/08/17 02:44:29;;;;;;;12.70;3.75;;;12.90;99.90;;;;;;5079202;28;20055;-73
2021/08/17 02:46:54;;;;;;;13.85;2.55;;;12.80;99.90;;;;;;5080211;28;20114;-74
2021/08/17 02:49:20;;;;;;;14.50;3.33;;;12.80;99.90;;;;;;5077630;28;20048;-74
2021/08/17 02:51:46;;;;;;;14.73;3.13;;;12.70;99.90;;;;;;5087346;28;20119;-73
2021/08/17 02:54:12;;;;;;;15.15;2.85;;;12.70;99.90;;;;;;5063271;28;20093;-74
2021/08/17 02:56:38;;;;;;;10.40;2.88;;;12.60;99.90;;;;;;5054584;28;20506;-73
2021/08/17 02:59:06;;;;;;;12.93;2.65;;;12.60;99.90;;;;;;5054077;28;20036;-74
2021/08/17 03:01:32;;;;;;;11.15;2.63;;;12.50;99.90;;;;;;5065872;28;20051;-74
2021/08/17 03:03:58;;;;;;;10.23;2.83;;;12.50;99.90;;;;;;5052507;28;20040;-74
2021/08/17 03:06:24;;;;;;;13.00;2.88;;;12.50;99.90;;;;;;5087992;28;20095;-73
2021/08/17 03:08:50;;;;;;;12.82;2.80;;;12.50;99.90;;;;;;5076322;28;20717;-74
2021/08/17 03:11:16;;;;;;;13.35;3.35;;;12.50;99.90;;;;;;5059384;28;20090;-73
2021/08/17 03:13:45;;;;;;;9.45;2.60;;;12.40;99.90;;;;;;5079225;28;20028;-75
2021/08/17 03:16:11;;;;;;;12.80;2.72;;;12.40;99.90;;;;;;5082781;28;20047;-73
2021/08/17 03:18:41;;;;;;;11.48;2.80;;;12.40;99.90;;;;;;5067048;28;20040;-73
2021/08/17 03:21:07;;;;;;;9.88;2.90;;;12.40;99.90;;;;;;5048610;28;20494;-71
2021/08/17 03:23:33;;;;;;;16.80;2.92;;;12.30;99.90;;;;;;5080629;28;20089;-72
2021/08/17 03:25:58;;;;;;;15.13;2.92;;;12.30;99.90;;;;;;5072375;28;20039;-72
2021/08/17 03:28:25;;;;;;;11.80;2.30;;;12.30;99.90;;;;;;5066857;28;20711;-71
2021/08/17 03:30:51;;;;;;;11.02;2.67;;;12.30;99.90;;;;;;5080098;28;20062;-72
2021/08/17 03:33:16;;;;;;;12.30;2.60;;;12.30;99.90;;;;;;5079487;28;20490;-74
2021/08/17 03:35:42;;;;;;;15.35;2.80;;;12.30;99.90;;;;;;5083130;28;20069;-74
2021/08/17 03:38:11;;;;;;;9.75;2.45;;;12.20;99.90;;;;;;5085864;28;20479;-73
2021/08/17 03:40:37;;;;;;;13.32;2.60;;;12.20;99.90;;;;;;5063941;28;20044;-74
2021/08/17 03:43:03;;;;;;;14.77;2.88;;;12.20;99.90;;;;;;5081677;28;20588;-74
2021/08/17 03:45:29;;;;;;;12.30;2.90;;;12.20;99.90;;;;;;5044136;28;20102;-74
2021/08/17 03:47:57;;;;;;;12.68;2.40;;;12.20;99.90;;;;;;5077881;28;20032;-75
2021/08/17 03:50:23;;;;;;;14.90;2.97;;;12.20;99.90;;;;;;5077220;28;20093;-74
2021/08/17 03:52:52;;;;;;;11.52;2.65;;;12.20;99.90;;;;;;5057191;28;20036;-74
2021/08/17 03:55:18;;;;;;;14.13;2.88;;;12.20;99.90;;;;;;5076444;28;20124;-74
2021/08/17 03:57:44;;;;;;;10.75;2.78;;;12.20;99.90;;;;;;5078769;28;20048;-75
2021/08/17 04:00:20;;;;;;;11.55;2.20;;;12.20;99.90;;;;;;5048082;28;20043;-75
2021/08/17 04:02:46;;;;;;;12.77;2.53;;;12.20;99.90;;;;;;5077704;28;20127;-74
2021/08/17 04:05:12;;;;;;;13.75;2.80;;;12.20;99.90;;;;;;5076673;28;20115;-74
2021/08/17 04:07:42;;;;;;;10.10;2.72;;;12.20;99.90;;;;;;5078697;28;20051;-74
2021/08/17 04:10:09;;;;;;;10.93;2.55;;;12.10;99.90;;;;;;5056617;28;20410;-74
2021/08/17 04:12:35;;;;;;;14.77;2.97;;;12.20;99.90;;;;;;5082957;28;20064;-74
2021/08/17 04:15:03;;;;;;;13.95;2.70;;;12.20;99.90;;;;;;5080670;28;20044;-74
2021/08/17 04:17:30;;;;;;;16.42;2.83;;;12.10;99.90;;;;;;5068344;28;20040;-74
2021/08/17 04:19:56;;;;;;;12.57;2.72;;;12.10;99.90;;;;;;5070245;28;20048;-74
2021/08/17 04:22:22;;;;;;;12.10;2.97;;;12.10;99.90;;;;;;5077782;28;20066;-74
2021/08/17 04:24:48;;;;;;;12.80;2.83;;;12.10;99.90;;;;;;5084040;28;20417;-74
2021/08/17 04:27:15;;;;;;;14.40;3.08;;;12.10;99.90;;;;;;5084614;28;20044;-74
2021/08/17 04:29:41;;;;;;;12.30;2.83;;;12.10;99.90;;;;;;5072565;28;20055;-74
2021/08/17 04:32:07;;;;;;;12.40;2.88;;;12.10;99.90;;;;;;5087530;28;20072;-74
2021/08/17 04:34:34;;;;;;;15.40;2.90;;;12.10;99.90;;;;;;5083529;28;20064;-74
2021/08/17 04:37:00;;;;;;;11.05;2.85;;;12.10;99.90;;;;;;5079674;28;20046;-74
2021/08/17 04:39:29;;;;;;;11.20;2.97;;;12.20;99.90;;;;;;5074625;28;20066;-74
2021/08/17 04:41:55;;;;;;;9.38;2.75;;;12.20;99.90;;;;;;5079835;28;20159;-73
2021/08/17 04:44:21;;;;;;;13.18;2.70;;;12.20;99.90;;;;;;5078719;28;20044;-72
2021/08/17 04:46:47;;;;;;;9.27;2.63;;;12.30;99.90;;;;;;5075515;28;20052;-73
2021/08/17 04:49:13;;;;;;;14.63;3.00;;;12.30;99.90;;;;;;5080120;28;20402;-72
2021/08/17 04:51:39;;;;;;;12.48;3.05;;;12.40;99.90;;;;;;5069399;28;20122;-72
2021/08/17 04:54:05;;;;;;;11.85;2.78;;;12.40;99.90;;;;;;5067689;28;20127;-72
2021/08/17 04:56:31;;;;;;;19.80;4.75;;;12.40;99.90;;;;;;5069514;28;20037;-71
2021/08/17 04:58:57;;;;;;;14.40;2.92;;;12.40;99.90;;;;;;5080616;28;20033;-72
2021/08/17 05:01:23;;;;;;;11.98;3.03;;;12.50;99.90;;;;;;5079279;28;20743;-72
2021/08/17 05:03:49;;;;;;;13.23;3.15;;;12.60;99.90;;;;;;5065117;28;20055;-72
2021/08/17 05:06:15;;;;;;;11.98;3.35;;;12.60;99.90;;;;;;5087759;28;20040;-73
2021/08/17 05:08:41;;;;;;;15.32;2.88;;;12.70;99.90;;;;;;5081155;28;20048;-73
2021/08/17 05:11:07;;;;;;;15.32;3.88;;;12.70;99.90;;;;;;5091142;28;20042;-73
2021/08/17 05:13:34;;;;;;;17.50;3.38;;;12.80;99.90;;;;;;5084790;28;20098;-72
2021/08/17 05:16:00;;;;;;;10.95;3.47;;;12.80;99.90;;;;;;5087131;28;20059;-72
2021/08/17 05:18:32;;;;;;;14.32;3.72;;;12.90;99.90;;;;;;5075803;28;20119;-72
2021/08/17 05:21:01;;;;;;;15.55;4.57;;;12.90;99.90;;;;;;5083599;28;20040;-72
2021/08/17 05:23:28;;;;;;;13.77;3.73;;;12.90;99.90;;;;;;5071506;28;20033;-73
2021/08/17 05:25:54;;;;;;;15.25;3.42;;;13.00;99.90;;;;;;5085973;28;20376;-73
2021/08/17 05:28:20;;;;;;;12.40;3.70;;;13.00;99.90;;;;;;5063513;28;20087;-73
2021/08/17 05:30:50;;;;;;;16.60;4.25;;;13.10;99.90;;;;;;5082358;28;20044;-73
2021/08/17 05:33:16;;;;;;;17.73;4.97;;;13.10;99.90;;;;;;5069345;28;20032;-73
2021/08/17 05:35:43;;;;;;;13.27;4.35;;;13.10;99.90;;;;;;5096795;28;20074;-72
2021/08/17 05:38:10;;;;;;;13.50;4.45;;;13.20;99.90;;;;;;5086751;28;20044;-73
2021/08/17 05:40:36;;;;;;;9.45;3.83;;;13.20;99.90;;;;;;5081396;28;20044;-73
2021/08/17 05:43:04;;;;;;;17.95;4.32;;;13.20;99.90;;;;;;5083027;28;20148;-73
2021/08/17 05:45:31;;;;;;;16.52;4.88;;;13.30;99.90;;;;;;5080751;28;20043;-73
2021/08/17 05:47:57;;;;;;;14.18;4.57;;;13.30;99.90;;;;;;5067116;28;20040;-73
2021/08/17 05:50:23;;;;;;;17.70;4.53;;;13.40;99.90;;;;;;5069841;28;20086;-73
2021/08/17 05:52:49;;;;;;;16.83;4.80;;;13.40;99.90;;;;;;5081575;28;20059;-73
2021/08/17 05:55:15;;;;;;;16.73;4.57;;;13.50;99.90;;;;;;5087259;28;20032;-73
2021/08/17 05:57:41;;;;;;;16.33;4.60;;;13.60;99.90;;;;;;5078376;28;20070;-73
2021/08/17 06:00:13;;;;;;;14.73;5.10;;;13.70;99.90;;;;;;5083903;28;20028;-73
2021/08/17 06:02:41;;;;;;;15.45;4.85;;;13.80;99.90;;;;;;5088931;28;20123;-73
2021/08/17 06:05:07;;;;;;;14.20;4.68;;;13.90;99.90;;;;;;5086204;28;20052;-73
2021/08/17 06:07:36;;;;;;;13.93;4.55;;;13.90;99.90;;;;;;5086751;28;20036;-73
2021/08/17 06:10:03;;;;;;;13.40;4.80;;;14.00;99.90;;;;;;5051568;28;20048;-73
2021/08/17 06:12:30;;;;;;;14.90;4.97;;;14.00;99.90;;;;;;5057923;28;20049;-73
2021/08/17 06:14:56;;;;;;;13.32;4.30;;;14.10;99.90;;;;;;5074235;28;20036;-74
2021/08/17 06:17:22;;;;;;;13.52;4.28;;;14.10;99.90;;;;;;5071055;28;20405;-74
2021/08/17 06:19:48;;;;;;;12.60;4.50;;;14.10;99.90;;;;;;5083781;28;20032;-74
2021/08/17 06:22:13;;;;;;;14.25;4.13;;;14.10;99.90;;;;;;5073106;28;20047;-74
2021/08/17 06:24:39;;;;;;;17.05;5.55;;;14.10;99.90;;;;;;5083600;28;20548;-74
2021/08/17 06:27:05;;;;;;;13.23;4.53;;;14.10;99.90;;;;;;5056530;28;20040;-74
2021/08/17 06:29:31;;;;;;;13.30;4.30;;;14.20;99.90;;;;;;5069279;28;20130;-74
2021/08/17 06:31:57;;;;;;;11.05;4.60;;;14.20;99.90;;;;;;5085085;28;20541;-73
2021/08/17 06:34:23;;;;;;;11.93;4.35;;;14.30;99.90;;;;;;5079617;28;20441;-74
2021/08/17 06:36:49;;;;;;;11.65;4.63;;;14.40;99.90;;;;;;5057797;28;20071;-73
2021/08/17 06:39:17;;;;;;;10.35;4.20;;;14.50;99.90;;;;;;5077476;28;20046;-74
2021/08/17 06:41:47;;;;;;;12.05;4.28;;;14.60;99.90;;;;;;5073973;28;20036;-72
2021/08/17 06:44:12;;;;;;;12.97;4.00;;;14.60;99.90;;;;;;5074386;28;20044;-73
2021/08/17 06:46:39;;;;;;;11.80;4.30;;;14.70;99.90;;;;;;5078125;28;20296;-73
2021/08/17 06:49:05;;;;;;;12.05;4.20;;;14.70;99.90;;;;;;5073440;28;20045;-73
2021/08/17 06:51:30;;;;;;;15.07;4.30;;;14.70;99.90;;;;;;5073623;28;20048;-72
2021/08/17 06:53:57;;;;;;;11.35;4.28;;;14.60;99.90;;;;;;5073196;28;20119;-73
2021/08/17 06:56:25;;;;;;;12.45;4.68;;;14.60;99.90;;;;;;5069247;28;20544;-73
2021/08/17 06:58:51;;;;;;;9.80;4.10;;;14.60;99.90;;;;;;5075655;28;20103;-73
2021/08/17 07:01:17;;;;;;;9.98;4.40;;;14.60;99.90;;;;;;5076645;28;20116;-73
2021/08/17 07:03:43;;;;;;;11.13;4.55;;;14.60;99.90;;;;;;5074960;28;20411;-73
2021/08/17 07:06:10;;;;;;;12.35;4.15;;;14.60;99.90;;;;;;5051373;28;20038;-73
2021/08/17 07:08:38;;;;;;;12.30;4.82;;;14.70;99.90;;;;;;5073903;28;20040;-74
2021/08/17 07:11:04;;;;;;;10.70;4.63;;;14.70;99.90;;;;;;5054115;28;20341;-74
2021/08/17 07:13:30;;;;;;;10.23;4.60;;;14.80;99.90;;;;;;5092813;28;20070;-73
2021/08/17 07:15:57;;;;;;;10.90;4.53;;;14.90;99.90;;;;;;5072835;28;20115;-73
2021/08/17 07:18:24;;;;;;;11.15;4.95;;;15.00;99.90;;;;;;5075647;28;20044;-73
2021/08/17 07:20:50;;;;;;;11.90;5.22;;;15.20;99.90;;;;;;5073191;28;20618;-72
2021/08/17 07:23:16;;;;;;;16.63;4.97;;;15.30;99.90;;;;;;5082790;28;20068;-73
2021/08/17 07:25:42;;;;;;;10.32;4.70;;;15.40;99.90;;;;;;5074748;28;20066;-73
2021/08/17 07:28:12;;;;;;;12.95;5.13;;;15.50;99.90;;;;;;5072392;28;20066;-73
2021/08/17 07:30:39;;;;;;;;;;;15.60;99.90;;;;;;5076956;28;20093;-73
2021/08/17 07:33:04;;;;;;;9.93;5.03;;;15.60;99.90;;;;;;5078254;28;19978;-74
2021/08/17 07:35:30;;;;;;;13.00;5.20;;;15.70;99.90;;;;;;5071208;28;20076;-73
2021/08/17 07:37:56;;;;;;;12.05;4.95;;;15.70;99.90;;;;;;5070615;28;20119;-73
2021/08/17 07:40:23;;;;;;;17.88;4.55;;;15.80;99.90;;;;;;5057563;28;20444;-72
2021/08/17 07:42:50;;;;;;;14.02;5.10;;;15.80;99.90;;;;;;5075875;28;20080;-72
2021/08/17 07:45:16;;;;;;;11.07;4.72;;;15.80;99.90;;;;;;5080399;28;20093;-73
2021/08/17 07:47:43;;;;;;;10.98;4.90;;;16.00;99.90;;;;;;5078113;28;20595;-72
2021/08/17 07:50:11;;;;;;;13.55;4.82;;;16.10;99.90;;;;;;5074548;28;20045;-71
2021/08/17 07:52:42;;;;;;;12.00;5.10;;;16.20;99.90;;;;;;5059868;28;20043;-72
2021/08/17 07:55:13;;;;;;;13.48;4.85;;;16.30;99.90;;;;;;5069725;28;20054;-73
2021/08/17 07:57:40;;;;;;;16.38;5.65;;;16.40;99.90;;;;;;5068353;28;20041;-72
2021/08/17 08:00:08;;;;;;;13.10;5.53;;;16.40;99.90;;;;;;5076877;28;20036;-72
2021/08/17 08:02:34;;;;;;;13.60;5.22;;;16.50;99.90;;;;;;5071882;28;20032;-73
2021/08/17 08:05:00;;;;;;;14.77;6.22;;;16.50;99.90;;;;;;5071217;28;20474;-73
2021/08/17 08:07:26;;;;;;;12.35;5.85;;;16.50;99.90;;;;;;5059245;28;20055;-72
2021/08/17 08:09:56;;;;;;;13.57;5.93;;;16.50;99.90;;;;;;5072057;28;20092;-73
2021/08/17 08:12:22;;;;;;;14.70;6.53;;;16.50;99.90;;;;;;5072378;28;20036;-74
2021/08/17 08:14:48;;;;;;;16.48;6.38;;;16.50;99.90;;;;;;5068756;28;20047;-75
2021/08/17 08:17:15;;;;;;;15.43;7.55;;;16.40;99.90;;;;;;5072696;28;20119;-73
2021/08/17 08:19:41;;;;;;;18.30;7.10;;;16.40;99.90;;;;;;5071556;28;20221;-74
2021/08/17 08:22:07;;;;;;;14.07;6.97;;;16.40;99.90;;;;;;5056960;28;20063;-73
2021/08/17 08:24:35;;;;;;;16.25;6.80;;;16.40;99.90;;;;;;5059665;28;20113;-73
2021/08/17 08:27:01;;;;;;;19.05;8.48;;;16.40;99.90;;;;;;5072171;28;20037;-73
2021/08/17 08:29:27;;;;;;;17.05;7.25;;;16.30;99.90;;;;;;5080223;28;20040;-73
2021/08/17 08:31:53;;;;;;;18.85;7.75;;;16.30;99.90;;;;;;5069885;28;20042;-72
2021/08/17 08:34:19;;;;;;;16.23;8.38;;;16.30;99.90;;;;;;5071451;28;20044;-74
2021/08/17 08:36:45;;;;;;;20.20;8.35;;;16.30;99.90;;;;;;5070622;28;20114;-74
2021/08/17 08:39:11;;;;;;;15.43;7.95;;;16.30;99.90;;;;;;5076238;28;20066;-73
2021/08/17 08:41:41;;;;;;;20.20;8.98;;;16.30;99.90;;;;;;5073821;28;20063;-73
2021/08/17 08:44:07;;;;;;;19.65;8.63;;;16.40;99.90;;;;;;5070142;28;20040;-72
2021/08/17 08:46:35;;;;;;;16.65;8.20;;;16.40;99.90;;;;;;5058200;28;20596;-73
2021/08/17 08:49:04;;;;;;;18.85;8.57;;;16.50;99.90;;;;;;5070159;28;20055;-72
2021/08/17 08:51:31;;;;;;;20.65;9.25;;;16.60;99.90;;;;;;5069080;28;20144;-73
2021/08/17 08:54:00;;;;;;;18.55;8.23;;;16.70;99.90;;;;;;5070723;28;20056;-72
2021/08/17 08:56:30;;;;;;;19.17;9.57;;;16.80;99.90;;;;;;5066915;28;20157;-73
2021/08/17 08:58:56;;;;;;;20.92;9.18;;;17.10;99.90;;;;;;5069440;28;20117;-72
2021/08/17 09:01:24;;;;;;;19.33;8.65;;;17.30;99.90;;;;;;5072402;28;20040;-72
2021/08/17 09:03:52;;;;;;;19.67;9.48;;;17.50;99.90;;;;;;5074673;28;20072;-73
2021/08/17 09:06:29;;;;;;;15.32;9.18;;;17.70;99.90;;;;;;5075363;28;20048;-74
2021/08/17 09:09:11;;;;;;;19.65;9.10;;;17.80;99.90;;;;;;5073213;28;20104;-75
2021/08/17 09:11:41;;;;;;;22.65;8.98;;;17.80;99.90;;;;;;5079581;28;20067;-75
2021/08/17 09:14:24;;;;;;;19.02;8.95;;;17.80;99.90;;;;;;5069060;28;20040;-74
2021/08/17 09:17:11;;;;;;;21.20;10.15;;;17.70;99.90;;;;;;5071370;28;20036;-72
2021/08/17 09:19:40;;;;;;;19.55;9.65;;;17.60;99.90;;;;;;5071848;28;20056;-74
2021/08/17 09:22:21;;;;;;;19.17;10.05;;;17.50;99.90;;;;;;5069325;28;20089;-73
2021/08/17 09:24:52;;;;;;;20.05;9.98;;;17.40;99.90;;;;;;5067287;28;20059;-73
2021/08/17 09:27:21;;;;;;;20.40;9.95;;;17.40;99.90;;;;;;5075846;28;20105;-72
2021/08/17 09:29:52;;;;;;;22.50;10.65;;;17.30;99.90;;;;;;5070416;28;20047;-73
2021/08/17 09:32:24;;;;;;;18.27;10.43;;;17.20;99.90;;;;;;5075822;28;20728;-73
2021/08/17 09:34:54;;;;;;;20.45;11.27;;;17.10;99.90;;;;;;5068511;28;20061;-73
2021/08/17 09:37:25;;;;;;;21.52;10.95;;;17.10;99.90;;;;;;5070994;28;20048;-73
2021/08/17 09:39:54;;;;;;;17.90;10.95;;;17.10;99.90;;;;;;5069013;28;20141;-73
2021/08/17 09:42:34;;;;;;;20.17;10.95;;;17.30;99.90;;;;;;5068274;28;20044;-74
2021/08/17 09:45:11;;;;;;;19.00;10.90;;;17.60;99.90;;;;;;5077398;28;20484;-75
2021/08/17 09:47:46;;;;;;;25.42;11.40;;;17.90;99.90;;;;;;5066595;28;20123;-75
2021/08/17 09:50:24;;;;;;;19.60;10.57;;;18.20;99.90;;;;;;5075665;28;20051;-75
2021/08/17 09:53:05;;;;;;;22.02;10.95;;;18.40;99.80;;;;;;5076094;28;20044;-73
2021/08/17 09:55:48;;;;;;;19.02;11.55;;;18.50;99.10;;;;;;5072295;28;20079;-73
2021/08/17 09:58:21;;;;;;;19.98;10.50;;;18.40;98.60;;;;;;5076169;28;20040;-73
2021/08/17 10:00:50;;;;;;;19.23;10.55;;;18.30;98.60;;;;;;5079094;28;20044;-73
2021/08/17 10:03:18;;;;;;;19.20;11.52;;;18.40;98.70;;;;;;5077128;28;20040;-73
2021/08/17 10:05:44;;;;;;;20.35;10.98;;;18.50;98.90;;;;;;5076313;28;20045;-72
2021/08/17 10:08:16;;;;;;;20.30;11.93;;;18.60;97.90;;;;;;5058876;28;20040;-72
2021/08/17 10:10:47;;;;;;;20.88;11.98;;;18.60;98.40;;;;;;5073088;28;20036;-73
2021/08/17 10:13:18;;;;;;;20.30;11.30;;;18.60;98.30;;;;;;5071798;28;20025;-72
2021/08/17 10:15:46;;;;;;;17.92;11.18;;;18.70;97.70;;;;;;5077288;28;20036;-75
2021/08/17 10:18:16;;;;;;;20.60;11.50;;;19.00;98.10;;;;;;5052478;28;20052;-73
2021/08/17 10:20:44;;;;;;;18.67;11.60;;;19.40;97.40;;;;;;5078397;28;20059;-73
2021/08/17 10:23:14;;;;;;;21.33;11.15;;;19.50;95.20;;;;;;5080538;28;20032;-73
2021/08/17 10:25:58;;;;;;;22.60;12.07;;;19.60;95.10;;;;;;5077706;28;20048;-74
2021/08/17 10:28:39;;;;;;;21.70;11.20;;;19.60;95.10;;;;;;5066459;28;20036;-73
2021/08/17 10:31:14;;;;;;;20.35;11.25;;;19.80;95.70;;;;;;5060930;28;20044;-74
2021/08/17 10:33:53;;;;;;;17.90;11.43;;;19.90;94.60;;;;;;5074870;28;20552;-73
2021/08/17 10:36:44;;;;;;;21.80;11.67;;;19.70;94.90;;;;;;5075393;28;20033;-75
2021/08/17 10:39:18;;;;;;;21.60;11.00;;;19.60;95.90;;;;;;5073103;28;20348;-74
2021/08/17 10:41:46;;;;;;;19.88;10.93;;;19.60;96.10;;;;;;5075878;28;20405;-74
2021/08/17 10:44:34;;;;;;;14.02;9.45;;;19.70;96.30;;;;;;5071389;28;20090;-75
2021/08/17 10:47:01;;;;;;;15.10;9.00;;;19.70;94.50;;;;;;5074188;28;20147;-74
2021/08/17 10:49:47;;;;;;;15.00;9.82;;;19.50;94.40;;;;;;5080168;28;20047;-74
2021/08/17 10:52:30;;;;;;;15.80;8.77;;;19.40;95.20;;;;;;5070504;28;20036;-73
2021/08/17 10:55:20;;;;;;;14.85;9.30;;;19.20;94.60;;;;;;5076782;28;20123;-75
2021/08/17 10:58:15;;;;;;;16.52;9.45;;;19.00;93.70;;;;;;5073904;28;20056;-74
2021/08/17 11:00:53;;;;;;;17.20;9.10;;;18.90;94.00;;;;;;5056094;28;21014;-74
2021/08/17 11:03:43;;;;;;;15.70;8.70;;;18.70;94.20;;;;;;5073020;28;20476;-72
2021/08/17 11:06:34;;;;;;;15.43;9.40;;;18.60;94.10;;;;;;5071993;28;20036;-71
2021/08/17 11:09:02;;;;;;;23.65;9.38;;;18.50;94.20;;;;;;5074546;28;20040;-74
2021/08/17 11:11:30;;;;;;;15.98;9.43;;;18.40;93.90;;;;;;5070278;28;20157;-73
2021/08/17 11:14:07;;;;;;;14.85;9.32;;;18.40;93.60;;;;;;5043457;28;20048;-73
2021/08/17 11:16:34;;;;;;;15.25;9.00;;;18.40;94.60;;;;;;5071912;28;20475;-73
2021/08/17 11:19:02;;;;;;;14.82;8.57;;;18.50;94.80;;;;;;5074986;28;20040;-72
2021/08/17 11:21:43;;;;;;;14.75;8.85;;;18.60;94.40;;;;;;5074426;28;20479;-72
2021/08/17 11:24:25;;;;;;;13.27;8.73;;;18.60;94.00;;;;;;5080210;28;20063;-73
2021/08/17 11:26:56;;;;;;;14.90;9.13;;;18.60;94.20;;;;;;5077884;28;20044;-73
2021/08/17 11:29:40;;;;;;;15.18;8.48;;;18.50;94.20;;;;;;5071260;28;20410;-73
2021/08/17 11:32:24;;;;;;;15.20;8.63;;;18.50;93.80;;;;;;5070974;28;20037;-73
2021/08/17 11:34:51;;;;;;;14.63;8.48;;;18.40;93.90;;;;;;5049140;28;20491;-73
2021/08/17 11:37:18;;;;;;;12.48;7.95;;;18.30;93.90;;;;;;5067116;28;20372;-73
2021/08/17 11:39:46;;;;;;;15.18;8.70;;;18.30;94.20;;;;;;5084819;28;20058;-72
2021/08/17 11:42:30;;;;;;;17.60;9.13;;;18.40;94.10;;;;;;5052703;28;20577;-72
2021/08/17 11:44:59;;;;;;;11.32;8.02;;;18.50;94.20;;;;;;5058727;28;20064;-72
2021/08/17 11:47:27;;;;;;;13.73;8.30;;;18.70;94.40;;;;;;5077401;28;20071;-72
2021/08/17 11:49:57;;;;;;;12.70;8.13;;;18.90;94.60;;;;;;5073875;28;20031;-72
2021/08/17 11:52:37;;;;;;;12.07;7.72;;;19.20;93.00;;;;;;5076537;28;20035;-73
2021/08/17 11:55:12;;;;;;;13.70;7.88;;;19.40;92.60;;;;;;5066425;28;20044;-73
2021/08/17 11:57:48;;;;;;;12.57;7.10;;;19.30;92.30;;;;;;5071429;28;20036;-72
2021/08/17 12:00:33;;;;;;;12.05;7.75;;;19.20;91.60;;;;;;5072174;28;20035;-73
2021/08/17 12:03:03;;;;;;;13.30;6.60;;;19.00;91.80;;;;;;5072790;28;20380;-74
2021/08/17 12:05:31;;;;;;;11.45;7.13;;;18.80;92.10;;;;;;5074528;28;20863;-74
2021/08/17 12:07:58;;;;;;;11.32;6.65;;;18.70;92.30;;;;;;5049388;28;20552;-75
2021/08/17 12:10:27;;;;;;;11.35;6.93;;;18.60;93.00;;;;;;5079731;28;20040;-74
2021/08/17 12:13:09;;;;;;;9.23;6.63;;;18.60;93.00;;;;;;5072660;28;20039;-73
2021/08/17 12:15:45;;;;;;;13.23;7.45;;;18.70;93.40;;;;;;5068942;28;20044;-73
2021/08/17 12:18:10;;;;;;;13.38;7.13;;;18.90;94.20;;;;;;5071336;28;20363;-73
2021/08/17 12:20:40;;;;;;;12.25;6.50;;;19.10;94.10;;;;;;5071121;28;20093;-73
2021/08/17 12:23:28;;;;;;;10.30;6.17;;;19.20;93.40;;;;;;5070890;28;20044;-73
2021/08/17 12:26:16;;;;;;;13.88;6.18;;;19.30;93.20;;;;;;5065317;28;21522;-74
2021/08/17 12:28:45;;;;;;;11.15;6.45;;;19.40;92.90;;;;;;5068484;28;20037;-73
2021/08/17 12:31:28;;;;;;;10.85;6.38;;;19.40;92.60;;;;;;5087343;28;20040;-74
2021/08/17 12:33:57;;;;;;;9.88;6.25;;;19.30;92.60;;;;;;5070585;28;20471;-74
2021/08/17 12:36:49;;;;;;;12.10;6.10;;;19.20;92.20;;;;;;5072170;28;20036;-75
2021/08/17 12:39:23;;;;;;;12.27;6.97;;;18.90;92.60;;;;;;5075321;28;20650;-73
2021/08/17 12:41:55;;;;;;;11.80;6.30;;;18.70;93.00;;;;;;5063392;28;20056;-74
2021/08/17 12:44:29;;;;;;;13.57;6.72;;;18.60;93.30;;;;;;5073332;28;20044;-73